Time;durP1;ratioP1;P1;durP2;ratioP2;P2;SDS_P1;SDS_P2;PMS_P1;PMS_P2;Temp;Humidity;BMP_temperature;BMP_pressure;BME280_temperature;BME280_humidity;BME280_pressure;Samples;Min_cycle;Max_cycle;Signal;HPM_P1;HPM_P2
2021/06/01 00:26:18;;;;;;;5.30;2.95;;;;;;;14.40;52.49;100063.00;2171830;40;20057;-82
2021/06/01 00:27:49;;;;;;;6.22;3.40;;;;;;;14.39;52.27;100070.22;2164373;41;20053;-82
2021/06/01 00:29:21;;;;;;;4.78;2.90;;;;;;;14.36;52.36;100057.09;2137040;41;20058;-82
2021/06/01 00:30:53;;;;;;;4.93;2.72;;;;;;;14.39;52.23;100056.78;2164965;41;20038;-82
2021/06/01 00:32:24;;;;;;;7.05;3.15;;;;;;;14.40;52.21;100055.75;2152680;41;20089;-82
2021/06/01 00:39:02;;;;;;;5.57;3.05;;;;;;;14.26;52.74;100057.28;2164797;41;20038;-82
2021/06/01 01:04:20;;;;;;;5.82;3.15;;;;;;;13.34;57.13;100060.81;2161611;41;20104;-81
2021/06/01 01:05:54;;;;;;;6.25;3.20;;;;;;;13.40;56.96;100065.56;2163973;41;20064;-82
2021/06/01 01:07:38;;;;;;;5.90;3.33;;;;;;;13.44;56.87;100057.19;2162653;41;20053;-82
2021/06/01 01:09:48;;;;;;;5.53;3.20;;;;;;;13.49;56.68;100060.19;2158373;41;20038;-82
2021/06/01 01:19:16;;;;;;;6.63;4.30;;;;;;;12.80;58.73;100066.44;2153331;41;20038;-83
2021/06/01 01:21:15;;;;;;;8.32;4.03;;;;;;;12.66;59.43;100059.81;2159779;41;20049;-83
2021/06/01 01:23:20;;;;;;;8.35;4.13;;;;;;;12.48;60.08;100065.22;2145758;41;20057;-83
2021/06/01 01:58:40;;;;;;;7.82;4.80;;;;;;;11.78;62.02;100072.13;2162559;41;20038;-82
2021/06/01 02:00:24;;;;;;;7.00;4.88;;;;;;;11.69;62.70;100071.22;2156090;41;20066;-84
2021/06/01 02:02:10;;;;;;;;;;;;;;;11.63;62.73;100069.13;2156441;41;20034;-84
2021/06/01 02:03:55;;;;;;;8.45;4.90;;;;;;;11.59;62.87;100065.09;2148781;41;19956;-83
2021/06/01 02:05:49;;;;;;;6.80;4.35;;;;;;;11.55;63.17;100074.41;2135794;41;20051;-84
2021/06/01 02:14:38;;;;;;;7.35;5.10;;;;;;;11.32;64.01;100077.50;2122936;41;20101;-85
2021/06/01 02:18:48;;;;;;;9.15;5.40;;;;;;;11.16;64.36;100078.13;2140851;41;20047;-84
2021/06/01 02:20:29;;;;;;;7.13;4.30;;;;;;;11.19;64.24;100077.81;2095175;42;20096;-84
2021/06/01 02:22:18;;;;;;;8.90;5.25;;;;;;;11.19;64.51;100071.63;2133457;41;20043;-83
2021/06/01 02:50:22;;;;;;;9.05;4.15;;;;;;;11.58;62.47;100076.78;2132907;41;20044;-83
2021/06/01 02:54:13;;;;;;;7.63;4.88;;;;;;;11.37;63.07;100075.19;2127141;42;20040;-83
2021/06/01 02:55:45;;;;;;;7.70;4.60;;;;;;;11.22;63.59;100084.72;2120249;41;20474;-82
2021/06/01 02:57:19;;;;;;;7.75;4.65;;;;;;;11.08;64.37;100078.03;2120483;42;20045;-83
2021/06/01 02:58:51;;;;;;;8.68;4.72;;;;;;;10.98;64.63;100078.06;2121710;42;20037;-82
2021/06/01 03:00:26;;;;;;;6.47;4.22;;;;;;;10.88;65.31;100082.59;2120821;42;20063;-82
2021/06/01 03:08:01;;;;;;;8.07;4.65;;;;;;;10.55;65.92;100079.47;2249832;39;20419;-82
2021/06/01 03:09:34;;;;;;;8.63;4.95;;;;;;;10.55;66.12;100085.63;2244308;39;20028;-82
2021/06/01 03:11:05;;;;;;;7.78;4.97;;;;;;;10.53;66.33;100086.78;2225505;40;20032;-82
2021/06/01 03:12:48;;;;;;;9.77;5.30;;;;;;;10.48;66.40;100089.03;2214161;40;20409;-82
2021/06/01 03:14:21;;;;;;;7.93;5.05;;;;;;;10.44;66.50;100083.97;2185655;40;20042;-82
2021/06/01 03:16:09;;;;;;;7.32;4.85;;;;;;;10.44;66.53;100080.44;2210432;40;20467;-82
2021/06/01 03:17:47;;;;;;;11.80;4.80;;;;;;;10.48;66.60;100091.72;2215769;40;20049;-82
2021/06/01 03:19:31;;;;;;;8.95;4.13;;;;;;;10.52;66.25;100085.94;2193878;40;20111;-81
2021/06/01 03:21:03;;;;;;;7.97;4.15;;;;;;;10.63;65.94;100084.94;2211786;40;20041;-79
2021/06/01 03:22:34;;;;;;;10.45;5.40;;;;;;;10.74;65.68;100084.75;2217246;40;20086;-79
2021/06/01 03:24:08;;;;;;;7.63;4.75;;;;;;;10.73;65.25;100080.41;2218015;40;20046;-79
2021/06/01 03:25:39;;;;;;;7.22;5.05;;;;;;;10.77;65.20;100087.13;2221387;40;20045;-78
2021/06/01 03:27:10;;;;;;;6.75;4.47;;;;;;;10.78;65.09;100079.97;2223274;40;20037;-78
2021/06/01 03:28:41;;;;;;;7.00;5.10;;;;;;;10.74;64.80;100083.91;2221463;40;20033;-78
2021/06/01 03:30:13;;;;;;;7.40;4.80;;;;;;;10.72;65.15;100078.72;2217548;40;20042;-79
2021/06/01 03:31:44;;;;;;;6.65;4.18;;;;;;;10.79;64.99;100087.00;2217946;40;20101;-78
2021/06/01 03:33:16;;;;;;;8.00;5.00;;;;;;;10.76;64.98;100087.28;2221018;40;20045;-78
2021/06/01 03:34:48;;;;;;;8.25;5.03;;;;;;;10.67;65.33;100086.34;2221857;40;20057;-79
2021/06/01 03:36:19;;;;;;;6.97;4.57;;;;;;;10.59;65.38;100086.19;2219935;40;20533;-78
2021/06/01 03:37:51;;;;;;;6.82;4.65;;;;;;;10.55;65.71;100084.81;2221019;40;20041;-78
2021/06/01 03:39:26;;;;;;;6.70;4.40;;;;;;;10.56;65.61;100087.31;2222584;40;20403;-78
2021/06/01 03:40:58;;;;;;;6.82;4.25;;;;;;;10.64;65.47;100081.25;2197297;40;20351;-81
2021/06/01 03:42:29;;;;;;;7.30;5.03;;;;;;;10.69;65.24;100081.66;2210407;40;20034;-82
2021/06/01 03:44:00;;;;;;;9.13;4.00;;;;;;;10.77;65.30;100084.44;2201127;40;20030;-81
2021/06/01 03:45:34;;;;;;;8.02;5.25;;;;;;;10.84;64.96;100089.25;2219215;40;20466;-81
2021/06/01 03:47:06;;;;;;;7.68;4.97;;;;;;;10.85;64.76;100090.94;2193726;40;20045;-81
2021/06/01 03:48:45;;;;;;;9.00;5.85;;;;;;;10.88;64.63;100083.44;2221151;40;20030;-81
2021/06/01 03:50:22;;;;;;;7.28;4.50;;;;;;;10.89;64.43;100084.28;2211625;40;20045;-82
2021/06/01 03:51:53;;;;;;;7.15;4.72;;;;;;;10.91;64.45;100079.63;2215558;40;20025;-82
2021/06/01 03:53:27;;;;;;;7.03;4.55;;;;;;;10.99;64.30;100086.94;2220924;40;20372;-82
2021/06/01 03:55:00;;;;;;;7.15;5.22;;;;;;;11.02;64.35;100086.63;2208349;40;20045;-80
2021/06/01 03:56:36;;;;;;;5.75;4.28;;;;;;;11.04;64.21;100096.22;2224755;40;20037;-80
2021/06/01 03:58:10;;;;;;;10.57;4.55;;;;;;;11.05;64.19;100092.53;2203746;40;20035;-81
2021/06/01 03:59:42;;;;;;;7.13;4.63;;;;;;;10.98;64.26;100090.59;2219148;40;20057;-81
2021/06/01 04:01:15;;;;;;;7.40;4.55;;;;;;;11.00;64.24;100088.63;2187468;40;20036;-82
2021/06/01 04:02:46;;;;;;;6.35;3.85;;;;;;;11.05;64.21;100087.16;2212102;40;20022;-81
2021/06/01 04:04:21;;;;;;;5.78;4.00;;;;;;;11.12;63.92;100086.59;2212835;40;20104;-81
2021/06/01 04:05:52;;;;;;;6.40;3.33;;;;;;;11.12;63.91;100082.09;2218877;40;20092;-81
2021/06/01 04:07:24;;;;;;;10.07;4.75;;;;;;;11.16;63.83;100078.13;2216142;40;20041;-81
2021/06/01 04:08:55;;;;;;;8.52;3.97;;;;;;;11.19;63.82;100083.16;2218919;40;20420;-80
2021/06/01 04:10:28;;;;;;;6.63;3.97;;;;;;;11.21;63.66;100083.03;2221283;40;20052;-80
2021/06/01 04:11:59;;;;;;;6.97;3.70;;;;;;;11.21;63.57;100080.38;2225339;40;20163;-79
2021/06/01 04:13:31;;;;;;;7.50;4.32;;;;;;;11.23;63.54;100089.09;2223647;40;20068;-79
2021/06/01 04:15:03;;;;;;;8.10;4.68;;;;;;;11.13;63.72;100088.28;2223266;40;20042;-80
2021/06/01 04:16:34;;;;;;;8.50;4.57;;;;;;;11.15;63.79;100083.59;2219067;40;20478;-82
2021/06/01 04:18:06;;;;;;;9.57;4.68;;;;;;;11.19;63.58;100082.34;2221948;40;20061;-81
2021/06/01 04:19:37;;;;;;;7.13;4.60;;;;;;;11.22;63.52;100087.41;2219418;40;20049;-79
2021/06/01 04:21:08;;;;;;;8.70;4.28;;;;;;;11.22;63.61;100080.22;2216838;40;20330;-78
2021/06/01 04:22:39;;;;;;;6.25;4.20;;;;;;;11.31;63.42;100086.50;2213172;40;20373;-79
2021/06/01 04:24:11;;;;;;;8.43;4.57;;;;;;;11.35;63.42;100081.69;2215381;40;20034;-78
2021/06/01 04:25:44;;;;;;;9.43;5.65;;;;;;;11.39;63.24;100086.59;2213301;40;20038;-79
2021/06/01 04:27:15;;;;;;;8.98;5.15;;;;;;;11.40;63.26;100090.13;2218228;40;20473;-79
2021/06/01 04:28:46;;;;;;;6.68;4.20;;;;;;;11.42;63.16;100088.13;2219253;40;20092;-79
2021/06/01 04:30:19;;;;;;;7.95;5.03;;;;;;;11.48;62.98;100087.53;2216551;40;20262;-78
2021/06/01 04:31:51;;;;;;;7.82;5.03;;;;;;;11.53;62.91;100081.72;2213345;40;20054;-80
2021/06/01 04:33:22;;;;;;;8.10;4.35;;;;;;;11.53;62.70;100079.06;2218153;40;20049;-80
2021/06/01 04:34:54;;;;;;;7.38;4.30;;;;;;;11.54;62.63;100083.41;2219152;40;20040;-80
2021/06/01 04:36:25;;;;;;;13.40;5.30;;;;;;;11.54;62.62;100086.09;2220575;40;20465;-79
2021/06/01 04:37:57;;;;;;;9.52;5.47;;;;;;;11.45;62.74;100089.66;2215282;40;20052;-79
2021/06/01 04:39:28;;;;;;;7.38;4.50;;;;;;;11.33;63.13;100089.03;2214698;40;20038;-79
2021/06/01 04:41:00;;;;;;;8.98;4.57;;;;;;;11.29;63.21;100085.81;2213805;40;20049;-81
2021/06/01 04:42:32;;;;;;;9.48;4.50;;;;;;;11.31;63.30;100085.66;2217045;40;20029;-80
2021/06/01 04:44:03;;;;;;;8.55;4.80;;;;;;;11.30;63.33;100083.97;2216662;40;20045;-80
2021/06/01 04:45:35;;;;;;;8.25;5.35;;;;;;;11.25;63.19;100089.75;2214422;40;20370;-79
2021/06/01 04:47:06;;;;;;;8.88;4.82;;;;;;;11.28;63.40;100083.31;2212903;40;20049;-81
2021/06/01 04:48:38;;;;;;;7.03;4.90;;;;;;;11.39;63.08;100085.75;2221418;40;20025;-80
2021/06/01 04:50:10;;;;;;;8.93;5.10;;;;;;;11.46;63.01;100086.88;2219187;40;20426;-81
2021/06/01 04:51:41;;;;;;;10.38;6.10;;;;;;;11.53;62.72;100074.56;2221406;40;20038;-79
2021/06/01 04:53:14;;;;;;;10.60;5.57;;;;;;;11.66;62.37;100074.19;2217890;40;20045;-80
2021/06/01 04:54:46;;;;;;;11.65;5.15;;;;;;;11.71;62.06;100076.41;2217244;40;20037;-79
2021/06/01 04:56:19;;;;;;;8.30;4.63;;;;;;;11.79;61.95;100079.16;2220344;40;20049;-79
2021/06/01 04:57:50;;;;;;;13.40;6.88;;;;;;;11.88;61.74;100073.88;2216078;40;20022;-80
2021/06/01 04:59:22;;;;;;;15.38;6.30;;;;;;;11.92;61.41;100073.44;2220250;40;20038;-80
2021/06/01 05:00:54;;;;;;;12.57;5.47;;;;;;;11.94;61.38;100071.44;2217231;40;20022;-79
2021/06/01 05:02:26;;;;;;;16.08;5.45;;;;;;;11.92;61.41;100073.44;2216182;40;20050;-79
2021/06/01 05:03:58;;;;;;;13.90;5.45;;;;;;;12.01;61.33;100075.22;2220074;40;20034;-80
2021/06/01 05:05:29;;;;;;;11.43;5.47;;;;;;;12.00;61.27;100062.00;2215097;40;20045;-82
2021/06/01 05:07:01;;;;;;;12.45;4.93;;;;;;;11.93;61.40;100067.09;2212802;40;20054;-80
2021/06/01 05:08:32;;;;;;;10.20;4.60;;;;;;;11.95;61.44;100069.63;2219515;40;20053;-79
2021/06/01 05:10:04;;;;;;;9.45;4.80;;;;;;;11.98;61.27;100072.00;2216311;40;22825;-80
2021/06/01 05:11:36;;;;;;;10.60;5.55;;;;;;;12.02;61.37;100062.69;2213809;40;20296;-79
2021/06/01 05:13:09;;;;;;;8.68;4.97;;;;;;;12.13;60.96;100070.50;2195679;40;20036;-80
2021/06/01 05:14:40;;;;;;;11.73;5.60;;;;;;;12.19;60.57;100062.81;2213741;40;20118;-80
2021/06/01 05:16:11;;;;;;;10.68;5.38;;;;;;;12.21;60.53;100064.34;2211820;40;20044;-80
2021/06/01 05:17:43;;;;;;;13.20;5.68;;;;;;;12.22;60.39;100063.34;2218754;40;20029;-80
2021/06/01 05:19:14;;;;;;;13.35;5.50;;;;;;;12.21;60.50;100066.19;2218351;40;20057;-80
2021/06/01 05:20:46;;;;;;;20.05;7.05;;;;;;;12.21;60.30;100064.34;2219761;40;20042;-79
2021/06/01 05:22:18;;;;;;;8.57;4.82;;;;;;;12.25;60.47;100067.53;2205784;40;20034;-80
2021/06/01 05:23:49;;;;;;;16.23;5.93;;;;;;;12.30;60.05;100066.09;2218978;40;20025;-80
2021/06/01 05:25:20;;;;;;;12.00;5.63;;;;;;;12.34;59.87;100058.56;2209908;40;20479;-80
2021/06/01 05:26:53;;;;;;;12.23;5.40;;;;;;;12.41;59.66;100067.69;2213218;40;20026;-80
2021/06/01 05:28:23;;;;;;;12.18;4.38;;;;;;;12.49;59.62;100058.84;2212637;40;20056;-80
2021/06/01 05:29:57;;;;;;;9.65;5.32;;;;;;;12.59;59.39;100059.59;2221036;40;20060;-80
2021/06/01 05:31:40;;;;;;;13.43;4.85;;;;;;;12.69;59.17;100058.63;2217677;40;20053;-80
2021/06/01 05:33:13;;;;;;;9.80;4.32;;;;;;;12.73;58.89;100063.53;2214679;40;20024;-80
2021/06/01 05:34:47;;;;;;;8.00;4.38;;;;;;;12.77;58.67;100061.38;2215930;40;20041;-80
2021/06/01 05:36:19;;;;;;;13.45;5.93;;;;;;;12.75;58.62;100061.53;2219758;40;20029;-81
2021/06/01 05:37:51;;;;;;;10.30;4.97;;;;;;;12.78;58.53;100063.06;2218207;40;20488;-80
2021/06/01 05:39:22;;;;;;;14.70;5.68;;;;;;;12.87;58.34;100061.28;2220418;40;20049;-81
2021/06/01 05:40:54;;;;;;;15.25;5.13;;;;;;;12.98;58.18;100054.78;2216291;40;20034;-81
2021/06/01 05:42:30;;;;;;;7.93;4.38;;;;;;;13.08;57.85;100061.69;2214800;40;20453;-81
2021/06/01 05:44:05;;;;;;;12.15;4.85;;;;;;;13.17;57.72;100057.22;2210994;40;20049;-83
2021/06/01 05:45:52;;;;;;;16.10;5.30;;;;;;;13.30;57.48;100055.94;2215440;40;20029;-84
2021/06/01 05:47:24;;;;;;;13.13;5.75;;;;;;;13.31;57.10;100054.94;2182963;40;20046;-82
2021/06/01 05:48:55;;;;;;;18.35;6.07;;;;;;;13.24;56.96;100044.81;2212977;40;20079;-82
2021/06/01 05:50:27;;;;;;;10.57;4.90;;;;;;;13.25;56.75;100045.69;2214859;40;20149;-82
2021/06/01 05:51:59;;;;;;;17.85;5.90;;;;;;;13.34;56.38;100046.53;2203801;40;20448;-82
2021/06/01 05:53:33;;;;;;;11.88;4.95;;;;;;;13.32;56.48;100043.19;2195399;40;20030;-82
2021/06/01 05:55:06;;;;;;;13.82;4.70;;;;;;;13.35;56.42;100046.38;2191405;40;21637;-82
2021/06/01 05:56:38;;;;;;;9.45;4.22;;;;;;;13.46;56.30;100063.25;2214545;40;20030;-82
2021/06/01 05:58:14;;;;;;;15.05;5.07;;;;;;;13.53;56.10;100059.72;2213815;40;20136;-83
2021/06/01 05:59:47;;;;;;;9.80;5.30;;;;;;;13.52;55.87;100057.19;2214467;40;20038;-81
2021/06/01 06:01:19;;;;;;;17.80;5.65;;;;;;;13.60;55.97;100059.06;2212141;40;20054;-82
2021/06/01 06:02:52;;;;;;;10.48;5.95;;;;;;;13.61;55.82;100064.28;2214431;40;20072;-82
2021/06/01 06:04:31;;;;;;;9.65;4.85;;;;;;;13.65;55.89;100062.09;2212711;40;20457;-82
2021/06/01 06:06:11;;;;;;;9.65;5.53;;;;;;;13.73;55.53;100059.44;2215099;40;20128;-83
2021/06/01 06:07:45;;;;;;;10.15;5.30;;;;;;;13.75;55.33;100060.09;2212996;40;20044;-83
2021/06/01 06:09:21;;;;;;;14.98;5.47;;;;;;;13.86;55.12;100062.47;2214418;40;20026;-82
2021/06/01 06:10:56;;;;;;;7.15;4.32;;;;;;;13.91;55.19;100055.75;2213152;40;20050;-82
2021/06/01 06:12:27;;;;;;;8.68;4.10;;;;;;;14.03;55.13;100057.94;2215337;40;20049;-81
2021/06/01 06:14:03;;;;;;;8.07;4.13;;;;;;;14.11;55.29;100053.59;2213897;40;20034;-82
2021/06/01 06:15:37;;;;;;;10.27;5.10;;;;;;;14.15;54.96;100046.88;2215048;40;20128;-82
2021/06/01 06:17:25;;;;;;;11.07;5.10;;;;;;;14.24;54.31;100051.22;2213187;40;20056;-82
2021/06/01 06:19:16;;;;;;;9.68;4.43;;;;;;;14.32;54.14;100045.00;2213788;40;20096;-83
2021/06/01 06:22:53;;;;;;;9.50;4.82;;;;;;;14.45;54.20;100050.69;2212842;40;20025;-82
2021/06/01 06:24:30;;;;;;;8.15;4.55;;;;;;;14.50;53.76;100048.34;2218574;40;20038;-82
2021/06/01 06:26:06;;;;;;;9.75;4.35;;;;;;;14.52;53.48;100042.78;2213722;40;20056;-81
2021/06/01 06:30:11;;;;;;;12.80;4.43;;;;;;;14.67;52.80;100048.34;2214025;40;20049;-82
2021/06/01 06:31:47;;;;;;;13.45;4.30;;;;;;;14.72;52.70;100046.00;2213618;40;20389;-83
2021/06/01 06:33:20;;;;;;;13.80;4.60;;;;;;;14.79;52.42;100046.13;2215369;40;20062;-82
2021/06/01 06:34:54;;;;;;;12.05;5.30;;;;;;;14.80;52.10;100037.91;2213608;40;20036;-82
2021/06/01 06:36:45;;;;;;;11.65;4.57;;;;;;;14.90;51.94;100050.31;2215613;40;20034;-82
2021/06/01 06:38:26;;;;;;;6.90;4.35;;;;;;;14.93;51.64;100041.88;2214369;40;20064;-82
2021/06/01 06:42:28;;;;;;;8.07;4.10;;;;;;;15.31;50.70;100036.69;2216285;40;19941;-82
2021/06/01 06:44:23;;;;;;;15.63;4.63;;;;;;;15.49;50.06;100038.28;2214486;40;20078;-82
2021/06/01 06:45:55;;;;;;;7.93;4.03;;;;;;;15.61;49.59;100039.53;2213690;40;20044;-82
2021/06/01 06:47:39;;;;;;;6.85;4.05;;;;;;;15.67;49.56;100038.84;2215159;40;20018;-83
2021/06/01 06:49:11;;;;;;;6.68;4.18;;;;;;;15.84;49.31;100044.97;2213490;40;20396;-83
2021/06/01 06:50:43;;;;;;;10.43;3.65;;;;;;;15.98;49.25;100035.28;2215141;40;20060;-84
2021/06/01 06:52:14;;;;;;;9.43;3.97;;;;;;;16.17;48.75;100033.97;2214037;40;20060;-83
2021/06/01 06:53:52;;;;;;;15.32;7.07;;;;;;;16.37;48.57;100033.44;2215537;40;20025;-84
2021/06/01 06:55:23;;;;;;;13.13;4.72;;;;;;;16.56;47.95;100033.94;2214171;40;20082;-84
2021/06/01 06:56:55;;;;;;;22.95;5.82;;;;;;;16.72;47.57;100025.66;2215299;40;20026;-84
2021/06/01 06:58:26;;;;;;;7.93;4.57;;;;;;;16.86;47.05;100026.69;2213712;40;20026;-86
2021/06/01 06:59:58;;;;;;;14.48;4.10;;;;;;;16.92;46.82;100020.53;2215280;40;20524;-83
2021/06/01 07:01:31;;;;;;;9.00;3.42;;;;;;;17.05;46.67;100019.88;2213951;40;20033;-85
2021/06/01 07:03:02;;;;;;;9.20;3.67;;;;;;;17.24;46.18;100023.06;2215375;40;20033;-86
2021/06/01 07:04:34;;;;;;;6.70;3.58;;;;;;;17.42;45.97;100019.94;2213517;40;20037;-83
2021/06/01 07:06:06;;;;;;;7.40;3.60;;;;;;;17.50;45.41;100014.41;2215219;40;20484;-82
2021/06/01 07:07:38;;;;;;;8.60;4.03;;;;;;;17.57;45.33;100020.72;2213524;40;20050;-83
2021/06/01 07:09:09;;;;;;;8.93;3.75;;;;;;;17.64;45.53;100017.25;2215481;40;20030;-84
2021/06/01 07:10:41;;;;;;;8.82;3.65;;;;;;;17.80;45.20;100013.47;2212978;40;20034;-83
2021/06/01 07:12:13;;;;;;;6.15;3.60;;;;;;;17.88;44.86;100006.06;2215129;40;20035;-85
2021/06/01 07:13:51;;;;;;;8.32;3.78;;;;;;;18.06;44.92;100021.00;2213492;40;20037;-85
2021/06/01 07:15:45;;;;;;;16.23;4.20;;;;;;;18.18;44.21;100007.81;2214822;40;20108;-83
2021/06/01 07:17:20;;;;;;;8.98;3.90;;;;;;;18.21;44.13;100007.41;2214033;40;20034;-84
2021/06/01 07:18:51;;;;;;;8.45;3.40;;;;;;;18.31;43.96;100010.59;2214024;40;20034;-84
2021/06/01 07:20:25;;;;;;;9.10;3.85;;;;;;;18.47;43.67;100004.06;2215231;40;20034;-84
2021/06/01 07:21:56;;;;;;;11.40;4.00;;;;;;;18.63;43.78;99996.66;2213263;40;20040;-85
2021/06/01 07:23:27;;;;;;;6.55;3.83;;;;;;;18.74;42.99;99996.09;2214985;40;20030;-84
2021/06/01 07:24:58;;;;;;;8.65;4.30;;;;;;;18.84;42.99;99996.59;2212990;40;20034;-84
2021/06/01 07:26:29;;;;;;;13.82;4.13;;;;;;;18.95;42.71;99988.97;2214501;40;20088;-83
2021/06/01 07:28:02;;;;;;;10.25;3.40;;;;;;;18.95;42.70;99994.38;2213875;40;20053;-84
2021/06/01 07:29:33;;;;;;;5.60;3.15;;;;;;;19.03;42.48;100002.31;2215145;40;20025;-84
2021/06/01 07:31:06;;;;;;;22.95;5.38;;;;;;;19.21;42.28;99992.81;2213504;40;20042;-85
2021/06/01 07:32:39;;;;;;;14.43;3.53;;;;;;;19.31;41.64;99990.56;2215519;40;20034;-87
2021/06/01 07:34:10;;;;;;;5.82;2.63;;;;;;;19.30;40.97;99997.84;2202774;40;20651;-86
2021/06/01 07:35:41;;;;;;;4.38;2.28;;;;;;;19.29;41.08;99992.63;2215298;40;20555;-85
2021/06/01 07:37:12;;;;;;;6.57;2.47;;;;;;;19.45;40.95;99986.84;2213753;40;20115;-84
2021/06/01 07:38:44;;;;;;;6.18;2.70;;;;;;;19.58;40.38;99980.63;2210090;40;20041;-85
2021/06/01 07:40:15;;;;;;;7.95;2.90;;;;;;;19.61;40.74;99973.94;2220293;40;20042;-85
2021/06/01 07:41:46;;;;;;;7.43;3.00;;;;;;;19.83;40.74;99976.47;2207224;40;20856;-85
2021/06/01 07:43:17;;;;;;;7.40;3.08;;;;;;;20.06;40.22;99976.09;2206388;40;20037;-85
2021/06/01 07:44:48;;;;;;;17.38;9.52;;;;;;;20.10;39.98;99972.75;2195553;40;20039;-86
2021/06/01 07:46:20;;;;;;;9.68;5.18;;;;;;;20.19;39.91;99977.97;2190135;40;20094;-85
2021/06/01 07:47:53;;;;;;;10.52;3.08;;;;;;;20.36;39.51;99970.22;2212820;40;20034;-85
2021/06/01 07:49:24;;;;;;;5.57;2.88;;;;;;;20.46;39.45;99975.22;2214264;40;20057;-84
2021/06/01 07:50:55;;;;;;;6.10;2.40;;;;;;;20.53;39.30;99966.03;2202983;40;20039;-87
2021/06/01 07:52:27;;;;;;;7.97;2.78;;;;;;;20.71;39.02;99968.06;2196618;40;20039;-85
2021/06/01 07:54:02;;;;;;;5.07;2.30;;;;;;;20.83;38.49;99960.09;2200272;40;20035;-86
2021/06/01 07:55:34;;;;;;;5.18;2.47;;;;;;;20.92;38.05;99957.97;2190693;40;20574;-84
2021/06/01 07:57:05;;;;;;;4.50;2.13;;;;;;;20.98;36.79;99957.13;2199456;40;20035;-87
2021/06/01 07:58:36;;;;;;;8.50;1.70;;;;;;;21.01;35.64;99945.00;2203575;40;20037;-83
2021/06/01 08:00:10;;;;;;;4.90;2.00;;;;;;;21.04;35.48;99948.13;2203321;40;20455;-84
2021/06/01 08:01:43;;;;;;;3.67;1.67;;;;;;;21.15;34.99;99949.31;2199462;40;20037;-83
2021/06/01 08:03:17;;;;;;;3.50;1.70;;;;;;;21.33;34.52;99948.59;2208781;40;20110;-84
2021/06/01 08:04:48;;;;;;;3.75;1.80;;;;;;;21.46;34.31;99953.13;2207227;40;20026;-85
2021/06/01 08:06:20;;;;;;;4.18;1.83;;;;;;;21.58;33.97;99944.25;2208435;40;20034;-84
2021/06/01 08:07:52;;;;;;;3.75;2.00;;;;;;;21.64;33.87;99944.22;2177247;40;20047;-86
2021/06/01 08:09:23;;;;;;;3.88;1.73;;;;;;;21.81;33.78;99944.50;2201699;40;20433;-84
2021/06/01 08:10:55;;;;;;;5.28;2.00;;;;;;;22.09;33.55;99950.56;2209232;40;20041;-84
2021/06/01 08:12:26;;;;;;;4.75;2.17;;;;;;;22.18;32.46;99951.97;2207195;40;20161;-83
2021/06/01 08:13:58;;;;;;;4.20;2.10;;;;;;;22.06;32.22;99951.84;2210039;40;20501;-83
2021/06/01 08:15:29;;;;;;;5.97;2.00;;;;;;;22.17;32.23;99949.44;2215164;40;20026;-84
2021/06/01 08:17:02;;;;;;;4.00;1.85;;;;;;;22.21;30.70;99943.31;2214270;40;20068;-86
2021/06/01 08:18:39;;;;;;;3.25;1.50;;;;;;;22.34;29.51;99942.34;2206059;40;20074;-81
2021/06/01 08:20:14;;;;;;;3.67;1.50;;;;;;;22.39;28.84;99938.94;2158233;40;20050;-83
2021/06/01 08:21:52;;;;;;;5.93;1.33;;;;;;;22.52;28.14;99938.03;2213506;40;20034;-84
2021/06/01 08:23:24;;;;;;;4.15;1.65;;;;;;;22.65;27.88;99934.31;2151029;40;20055;-85
2021/06/01 08:24:55;;;;;;;3.88;1.45;;;;;;;22.82;27.34;99934.53;2204824;40;20051;-87
2021/06/01 08:26:26;;;;;;;5.18;1.55;;;;;;;22.86;27.12;99927.56;2195846;40;20031;-84
2021/06/01 08:27:58;;;;;;;4.68;1.60;;;;;;;22.73;27.13;99934.03;2201648;40;20125;-84
2021/06/01 08:29:29;;;;;;;4.80;1.58;;;;;;;22.81;26.64;99939.16;2167925;40;20035;-82
2021/06/01 08:31:01;;;;;;;3.65;1.52;;;;;;;23.03;27.12;99930.50;2187799;40;20258;-83
2021/06/01 08:32:32;;;;;;;4.10;1.48;;;;;;;23.25;26.67;99917.22;2172340;40;20044;-83
2021/06/01 08:34:05;;;;;;;6.13;1.67;;;;;;;23.38;26.60;99935.28;2165783;41;20056;-83
2021/06/01 08:35:37;;;;;;;3.83;1.45;;;;;;;23.24;26.89;99925.66;2175837;41;20036;-86
2021/06/01 08:37:10;;;;;;;4.63;1.63;;;;;;;23.33;26.85;99916.91;2172030;40;20044;-83
2021/06/01 08:38:43;;;;;;;2.55;1.25;;;;;;;23.43;26.75;99920.94;2184230;40;20036;-85
2021/06/01 08:40:15;;;;;;;3.65;1.50;;;;;;;23.49;26.62;99920.84;2178529;40;20052;-85
2021/06/01 08:41:46;;;;;;;4.47;1.88;;;;;;;23.51;26.49;99923.34;2172661;41;20026;-85
2021/06/01 08:43:19;;;;;;;3.45;1.52;;;;;;;23.62;26.05;99918.97;2159901;40;20084;-83
2021/06/01 08:44:51;;;;;;;3.20;1.63;;;;;;;23.72;25.84;99919.22;2178850;40;20491;-84
2021/06/01 08:46:24;;;;;;;6.35;1.58;;;;;;;23.82;25.32;99914.00;2178418;40;20100;-84
2021/06/01 08:47:56;;;;;;;5.63;1.80;;;;;;;23.70;25.09;99915.91;2160419;41;20045;-85
2021/06/01 08:49:29;;;;;;;3.42;1.70;;;;;;;23.79;24.38;99913.66;2163831;41;20096;-84
2021/06/01 08:51:01;;;;;;;4.43;1.60;;;;;;;23.77;24.38;99908.44;2166121;41;20102;-83
2021/06/01 08:52:33;;;;;;;5.35;1.80;;;;;;;23.99;24.02;99906.00;2166879;41;20029;-84
2021/06/01 08:54:05;;;;;;;5.85;2.50;;;;;;;24.04;24.02;99916.19;2171042;40;20033;-85
2021/06/01 08:55:36;;;;;;;4.30;1.30;;;;;;;23.99;23.70;99908.72;2191848;40;20174;-84
2021/06/01 08:57:08;;;;;;;4.85;1.63;;;;;;;23.84;23.95;99903.69;2211845;40;20024;-87
2021/06/01 08:58:41;;;;;;;3.22;1.38;;;;;;;23.81;24.10;99900.63;2214686;40;20034;-86
2021/06/01 09:00:13;;;;;;;3.17;1.40;;;;;;;23.99;23.56;99908.72;2211253;40;20032;-85
2021/06/01 09:01:44;;;;;;;5.05;1.50;;;;;;;23.95;23.68;99904.78;2188385;40;20050;-83
2021/06/01 09:03:19;;;;;;;3.35;1.75;;;;;;;23.80;24.16;99916.19;2211557;40;20038;-85
2021/06/01 09:04:55;;;;;;;3.33;1.48;;;;;;;23.66;24.46;99906.53;2187210;40;20433;-84
2021/06/01 09:06:30;;;;;;;3.20;1.50;;;;;;;23.64;24.40;99905.94;2210923;40;20067;-84
2021/06/01 09:08:03;;;;;;;4.07;1.33;;;;;;;23.75;24.52;99902.38;2201079;40;20051;-83
2021/06/01 09:09:43;;;;;;;4.00;1.58;;;;;;;24.05;24.18;99912.41;2202152;40;20038;-86
2021/06/01 09:11:28;;;;;;;3.15;1.40;;;;;;;24.27;24.02;99901.72;2183216;40;20690;-83
2021/06/01 09:15:21;;;;;;;3.20;1.38;;;;;;;24.54;24.13;99898.44;2190166;40;20059;-83
2021/06/01 09:22:32;;;;;;;3.42;1.52;;;;;;;24.41;24.75;99885.91;2207689;40;20054;-84
2021/06/01 09:24:05;;;;;;;3.35;1.58;;;;;;;24.50;24.81;99886.38;2202628;40;20094;-86
2021/06/01 09:25:40;;;;;;;6.15;2.28;;;;;;;24.58;24.90;99893.34;2201695;40;20103;-84
2021/06/01 09:27:16;;;;;;;3.85;1.73;;;;;;;24.44;25.43;99892.78;2203229;40;20058;-83
2021/06/01 09:28:57;;;;;;;3.75;2.05;;;;;;;24.48;25.41;99883.03;2201745;40;20462;-85
2021/06/01 09:30:34;;;;;;;4.93;1.95;;;;;;;24.57;25.20;99880.75;2204148;40;20470;-84
2021/06/01 09:32:08;;;;;;;4.47;1.80;;;;;;;24.49;25.27;99886.59;2175344;40;20039;-83
2021/06/01 09:33:41;;;;;;;5.93;2.17;;;;;;;24.25;25.63;99878.44;2190943;40;20391;-82
2021/06/01 09:35:13;;;;;;;4.68;1.80;;;;;;;24.18;26.17;99888.66;2196440;40;20416;-84
2021/06/01 09:36:45;;;;;;;3.25;1.80;;;;;;;24.32;25.71;99887.34;2196579;40;20027;-83
2021/06/01 09:38:18;;;;;;;3.65;1.70;;;;;;;24.55;25.54;99877.44;2142147;41;20057;-85
2021/06/01 09:40:09;;;;;;;3.53;1.70;;;;;;;24.60;25.82;99874.81;2174715;40;20290;-83
2021/06/01 09:41:40;;;;;;;;;;;;;;;24.69;25.50;99880.75;2157156;41;20148;-82
2021/06/01 09:43:13;;;;;;;4.60;1.80;;;;;;;24.75;25.11;99877.88;2178571;40;19937;-85
2021/06/01 09:45:01;;;;;;;5.35;1.90;;;;;;;24.91;25.06;99872.72;2165694;41;20640;-83
2021/06/01 09:46:33;;;;;;;5.63;1.98;;;;;;;24.97;25.01;99879.13;2150321;41;20049;-83
2021/06/01 09:48:07;;;;;;;9.32;2.00;;;;;;;24.91;24.89;99873.53;2191925;40;20027;-83
2021/06/01 09:49:38;;;;;;;4.00;1.80;;;;;;;24.92;24.77;99875.19;2183951;40;20021;-84
2021/06/01 09:51:11;;;;;;;4.30;1.80;;;;;;;24.90;24.76;99873.78;2192044;40;20048;-84
2021/06/01 09:52:48;;;;;;;3.55;1.77;;;;;;;24.67;24.76;99869.19;2184205;40;20991;-83
2021/06/01 09:54:32;;;;;;;3.80;2.08;;;;;;;24.75;24.76;99861.47;2196221;40;20027;-83